sensor_id;sensor_type;location;lat;lon;timestamp;P1;durP1;ratioP1;P2;durP2;ratioP2
11113;SDS011;5610;52.154;9.198;2023-07-29T00:02:25;2.50;;;2.30;;
11113;SDS011;5610;52.154;9.198;2023-07-29T00:05:13;2.50;;;2.30;;
11113;SDS011;5610;52.154;9.198;2023-07-29T00:07:59;5.10;;;2.40;;
11113;SDS011;5610;52.154;9.198;2023-07-29T00:10:45;2.07;;;1.87;;
11113;SDS011;5610;52.154;9.198;2023-07-29T00:13:31;2.27;;;2.07;;
11113;SDS011;5610;52.154;9.198;2023-07-29T00:16:15;2.23;;;2.13;;
11113;SDS011;5610;52.154;9.198;2023-07-29T00:19:02;2.37;;;2.17;;
11113;SDS011;5610;52.154;9.198;2023-07-29T00:21:47;2.43;;;2.20;;
11113;SDS011;5610;52.154;9.198;2023-07-29T00:24:32;2.93;;;2.73;;
11113;SDS011;5610;52.154;9.198;2023-07-29T00:27:18;2.30;;;2.10;;
11113;SDS011;5610;52.154;9.198;2023-07-29T00:30:04;5.00;;;2.10;;
11113;SDS011;5610;52.154;9.198;2023-07-29T00:32:50;2.17;;;1.97;;
11113;SDS011;5610;52.154;9.198;2023-07-29T00:35:35;2.77;;;2.57;;
11113;SDS011;5610;52.154;9.198;2023-07-29T00:38:20;2.53;;;2.10;;
11113;SDS011;5610;52.154;9.198;2023-07-29T00:41:05;3.43;;;2.20;;
11113;SDS011;5610;52.154;9.198;2023-07-29T00:43:53;2.17;;;1.97;;
11113;SDS011;5610;52.154;9.198;2023-07-29T00:46:38;3.17;;;2.83;;
11113;SDS011;5610;52.154;9.198;2023-07-29T00:49:25;2.40;;;2.20;;
11113;SDS011;5610;52.154;9.198;2023-07-29T00:52:11;2.60;;;2.40;;
11113;SDS011;5610;52.154;9.198;2023-07-29T00:54:57;2.30;;;2.10;;
11113;SDS011;5610;52.154;9.198;2023-07-29T00:57:43;2.30;;;2.10;;
11113;SDS011;5610;52.154;9.198;2023-07-29T01:00:33;2.70;;;2.00;;
11113;SDS011;5610;52.154;9.198;2023-07-29T01:03:21;2.40;;;2.30;;
11113;SDS011;5610;52.154;9.198;2023-07-29T01:06:09;2.77;;;2.13;;
11113;SDS011;5610;52.154;9.198;2023-07-29T01:08:59;3.83;;;2.50;;
11113;SDS011;5610;52.154;9.198;2023-07-29T01:11:48;2.33;;;2.13;;
11113;SDS011;5610;52.154;9.198;2023-07-29T01:14:45;2.20;;;2.00;;
11113;SDS011;5610;52.154;9.198;2023-07-29T01:17:39;2.80;;;2.60;;
11113;SDS011;5610;52.154;9.198;2023-07-29T01:20:27;2.40;;;2.20;;
11113;SDS011;5610;52.154;9.198;2023-07-29T01:23:16;2.50;;;2.30;;
11113;SDS011;5610;52.154;9.198;2023-07-29T01:26:08;2.20;;;2.00;;
11113;SDS011;5610;52.154;9.198;2023-07-29T01:28:54;2.77;;;1.97;;
11113;SDS011;5610;52.154;9.198;2023-07-29T01:31:40;2.57;;;2.37;;
11113;SDS011;5610;52.154;9.198;2023-07-29T01:34:30;2.47;;;2.27;;
11113;SDS011;5610;52.154;9.198;2023-07-29T01:37:26;2.80;;;2.40;;
11113;SDS011;5610;52.154;9.198;2023-07-29T01:40:16;3.27;;;2.23;;
11113;SDS011;5610;52.154;9.198;2023-07-29T01:43:02;2.30;;;2.10;;
11113;SDS011;5610;52.154;9.198;2023-07-29T01:45:47;1.80;;;1.70;;
11113;SDS011;5610;52.154;9.198;2023-07-29T01:48:34;2.10;;;2.00;;
11113;SDS011;5610;52.154;9.198;2023-07-29T01:51:19;2.83;;;2.13;;
11113;SDS011;5610;52.154;9.198;2023-07-29T01:54:05;2.10;;;2.00;;
11113;SDS011;5610;52.154;9.198;2023-07-29T01:56:52;2.07;;;1.87;;
11113;SDS011;5610;52.154;9.198;2023-07-29T01:59:37;2.60;;;2.20;;
11113;SDS011;5610;52.154;9.198;2023-07-29T02:02:22;2.50;;;1.93;;
11113;SDS011;5610;52.154;9.198;2023-07-29T02:05:07;2.97;;;1.97;;
11113;SDS011;5610;52.154;9.198;2023-07-29T02:07:53;2.40;;;2.20;;
11113;SDS011;5610;52.154;9.198;2023-07-29T02:10:38;2.50;;;2.30;;
11113;SDS011;5610;52.154;9.198;2023-07-29T02:13:24;2.43;;;2.23;;
11113;SDS011;5610;52.154;9.198;2023-07-29T02:16:10;2.10;;;2.00;;
11113;SDS011;5610;52.154;9.198;2023-07-29T02:18:55;2.90;;;2.63;;
11113;SDS011;5610;52.154;9.198;2023-07-29T02:21:40;3.20;;;2.07;;
11113;SDS011;5610;52.154;9.198;2023-07-29T02:24:25;2.60;;;2.23;;
11113;SDS011;5610;52.154;9.198;2023-07-29T02:27:11;2.47;;;2.20;;
11113;SDS011;5610;52.154;9.198;2023-07-29T02:29:57;1.83;;;1.73;;
11113;SDS011;5610;52.154;9.198;2023-07-29T02:32:43;2.43;;;2.23;;
11113;SDS011;5610;52.154;9.198;2023-07-29T02:35:28;2.50;;;2.00;;
11113;SDS011;5610;52.154;9.198;2023-07-29T02:38:13;2.70;;;2.50;;
11113;SDS011;5610;52.154;9.198;2023-07-29T02:40:58;3.20;;;2.43;;
11113;SDS011;5610;52.154;9.198;2023-07-29T02:43:47;2.87;;;2.67;;
11113;SDS011;5610;52.154;9.198;2023-07-29T02:46:35;2.70;;;2.50;;
11113;SDS011;5610;52.154;9.198;2023-07-29T02:49:20;2.63;;;2.43;;
11113;SDS011;5610;52.154;9.198;2023-07-29T02:52:05;2.63;;;2.27;;
11113;SDS011;5610;52.154;9.198;2023-07-29T02:54:51;4.10;;;2.67;;
11113;SDS011;5610;52.154;9.198;2023-07-29T02:57:36;2.97;;;2.77;;
11113;SDS011;5610;52.154;9.198;2023-07-29T03:00:21;2.83;;;2.50;;
11113;SDS011;5610;52.154;9.198;2023-07-29T03:03:07;2.90;;;2.50;;
11113;SDS011;5610;52.154;9.198;2023-07-29T03:05:56;2.83;;;2.63;;
11113;SDS011;5610;52.154;9.198;2023-07-29T03:08:43;4.87;;;2.93;;
11113;SDS011;5610;52.154;9.198;2023-07-29T03:11:28;3.03;;;2.83;;
11113;SDS011;5610;52.154;9.198;2023-07-29T03:14:14;2.33;;;2.20;;
11113;SDS011;5610;52.154;9.198;2023-07-29T03:17:01;2.93;;;2.73;;
11113;SDS011;5610;52.154;9.198;2023-07-29T03:19:49;3.70;;;2.70;;
11113;SDS011;5610;52.154;9.198;2023-07-29T03:22:34;3.10;;;2.80;;
11113;SDS011;5610;52.154;9.198;2023-07-29T03:25:19;3.10;;;2.70;;
11113;SDS011;5610;52.154;9.198;2023-07-29T03:28:04;2.67;;;2.47;;
11113;SDS011;5610;52.154;9.198;2023-07-29T03:30:49;3.00;;;2.70;;
11113;SDS011;5610;52.154;9.198;2023-07-29T03:33:35;4.47;;;2.90;;
11113;SDS011;5610;52.154;9.198;2023-07-29T03:36:22;2.90;;;2.60;;
11113;SDS011;5610;52.154;9.198;2023-07-29T03:39:09;3.27;;;2.97;;
11113;SDS011;5610;52.154;9.198;2023-07-29T03:41:54;4.00;;;2.60;;
11113;SDS011;5610;52.154;9.198;2023-07-29T03:44:39;3.83;;;2.53;;
11113;SDS011;5610;52.154;9.198;2023-07-29T03:47:24;2.63;;;2.43;;
11113;SDS011;5610;52.154;9.198;2023-07-29T03:50:10;3.37;;;3.07;;
11113;SDS011;5610;52.154;9.198;2023-07-29T03:52:57;3.17;;;2.37;;
11113;SDS011;5610;52.154;9.198;2023-07-29T03:55:42;3.80;;;2.27;;
11113;SDS011;5610;52.154;9.198;2023-07-29T03:58:27;2.80;;;2.60;;
11113;SDS011;5610;52.154;9.198;2023-07-29T04:01:12;2.83;;;2.60;;
11113;SDS011;5610;52.154;9.198;2023-07-29T04:03:58;3.00;;;2.70;;
11113;SDS011;5610;52.154;9.198;2023-07-29T04:06:44;3.33;;;2.90;;
11113;SDS011;5610;52.154;9.198;2023-07-29T04:09:30;3.90;;;2.60;;
11113;SDS011;5610;52.154;9.198;2023-07-29T04:12:16;4.60;;;3.50;;
11113;SDS011;5610;52.154;9.198;2023-07-29T04:15:05;2.90;;;2.60;;
11113;SDS011;5610;52.154;9.198;2023-07-29T04:17:51;2.50;;;2.30;;
11113;SDS011;5610;52.154;9.198;2023-07-29T04:20:36;3.70;;;2.60;;
11113;SDS011;5610;52.154;9.198;2023-07-29T04:23:21;4.40;;;3.00;;
11113;SDS011;5610;52.154;9.198;2023-07-29T04:26:08;3.60;;;2.90;;
11113;SDS011;5610;52.154;9.198;2023-07-29T04:28:54;3.27;;;2.97;;
11113;SDS011;5610;52.154;9.198;2023-07-29T04:31:43;3.77;;;3.13;;
11113;SDS011;5610;52.154;9.198;2023-07-29T04:34:28;6.20;;;2.97;;
11113;SDS011;5610;52.154;9.198;2023-07-29T04:37:13;3.57;;;3.00;;
11113;SDS011;5610;52.154;9.198;2023-07-29T04:39:58;3.57;;;3.27;;
11113;SDS011;5610;52.154;9.198;2023-07-29T04:42:45;4.43;;;3.00;;
11113;SDS011;5610;52.154;9.198;2023-07-29T04:45:30;7.23;;;2.57;;
11113;SDS011;5610;52.154;9.198;2023-07-29T04:48:16;5.20;;;3.07;;
11113;SDS011;5610;52.154;9.198;2023-07-29T04:51:01;3.80;;;3.00;;
11113;SDS011;5610;52.154;9.198;2023-07-29T04:53:46;2.93;;;2.73;;
11113;SDS011;5610;52.154;9.198;2023-07-29T04:56:31;4.37;;;2.90;;
11113;SDS011;5610;52.154;9.198;2023-07-29T04:59:17;3.00;;;2.37;;
11113;SDS011;5610;52.154;9.198;2023-07-29T05:02:03;4.37;;;2.70;;
11113;SDS011;5610;52.154;9.198;2023-07-29T05:04:48;5.90;;;3.10;;
11113;SDS011;5610;52.154;9.198;2023-07-29T05:07:33;3.83;;;2.43;;
11113;SDS011;5610;52.154;9.198;2023-07-29T05:10:18;3.00;;;2.70;;
11113;SDS011;5610;52.154;9.198;2023-07-29T05:13:04;6.20;;;2.70;;
11113;SDS011;5610;52.154;9.198;2023-07-29T05:15:51;3.00;;;2.63;;
11113;SDS011;5610;52.154;9.198;2023-07-29T05:18:36;3.57;;;2.73;;
11113;SDS011;5610;52.154;9.198;2023-07-29T05:21:22;3.70;;;2.90;;
11113;SDS011;5610;52.154;9.198;2023-07-29T05:24:07;3.10;;;2.90;;
11113;SDS011;5610;52.154;9.198;2023-07-29T05:26:52;3.30;;;2.90;;
11113;SDS011;5610;52.154;9.198;2023-07-29T05:29:37;3.57;;;3.27;;
11113;SDS011;5610;52.154;9.198;2023-07-29T05:32:24;2.43;;;2.23;;
11113;SDS011;5610;52.154;9.198;2023-07-29T05:35:09;2.93;;;2.60;;
11113;SDS011;5610;52.154;9.198;2023-07-29T05:37:55;3.83;;;2.70;;
11113;SDS011;5610;52.154;9.198;2023-07-29T05:40:40;4.63;;;2.80;;
11113;SDS011;5610;52.154;9.198;2023-07-29T05:43:25;2.77;;;2.57;;
11113;SDS011;5610;52.154;9.198;2023-07-29T05:46:11;3.60;;;2.70;;
11113;SDS011;5610;52.154;9.198;2023-07-29T05:48:58;3.07;;;2.77;;
11113;SDS011;5610;52.154;9.198;2023-07-29T05:51:44;2.60;;;2.40;;
11113;SDS011;5610;52.154;9.198;2023-07-29T05:54:29;3.50;;;2.93;;
11113;SDS011;5610;52.154;9.198;2023-07-29T05:57:14;3.10;;;2.37;;
11113;SDS011;5610;52.154;9.198;2023-07-29T05:59:59;4.30;;;2.73;;
11113;SDS011;5610;52.154;9.198;2023-07-29T06:02:45;2.57;;;2.43;;
11113;SDS011;5610;52.154;9.198;2023-07-29T06:05:35;2.33;;;2.13;;
11113;SDS011;5610;52.154;9.198;2023-07-29T06:08:21;2.90;;;2.30;;
11113;SDS011;5610;52.154;9.198;2023-07-29T06:11:06;6.77;;;3.00;;
11113;SDS011;5610;52.154;9.198;2023-07-29T06:13:51;3.00;;;2.80;;
11113;SDS011;5610;52.154;9.198;2023-07-29T06:16:36;3.27;;;2.60;;
11113;SDS011;5610;52.154;9.198;2023-07-29T06:19:21;3.10;;;2.43;;
11113;SDS011;5610;52.154;9.198;2023-07-29T06:22:09;3.43;;;2.70;;
11113;SDS011;5610;52.154;9.198;2023-07-29T06:24:54;2.67;;;2.47;;
11113;SDS011;5610;52.154;9.198;2023-07-29T06:27:39;3.80;;;2.80;;
11113;SDS011;5610;52.154;9.198;2023-07-29T06:30:24;3.03;;;2.73;;
11113;SDS011;5610;52.154;9.198;2023-07-29T06:33:10;3.10;;;2.37;;
11113;SDS011;5610;52.154;9.198;2023-07-29T06:35:54;4.17;;;2.80;;
11113;SDS011;5610;52.154;9.198;2023-07-29T06:38:41;2.73;;;2.43;;
11113;SDS011;5610;52.154;9.198;2023-07-29T06:41:27;2.50;;;2.30;;
11113;SDS011;5610;52.154;9.198;2023-07-29T06:44:12;2.90;;;2.70;;
11113;SDS011;5610;52.154;9.198;2023-07-29T06:46:57;3.30;;;2.40;;
11113;SDS011;5610;52.154;9.198;2023-07-29T06:49:42;4.40;;;2.57;;
11113;SDS011;5610;52.154;9.198;2023-07-29T06:52:27;2.90;;;2.60;;
11113;SDS011;5610;52.154;9.198;2023-07-29T06:55:14;2.70;;;2.43;;
11113;SDS011;5610;52.154;9.198;2023-07-29T06:57:59;5.70;;;2.20;;
11113;SDS011;5610;52.154;9.198;2023-07-29T07:00:44;3.87;;;2.60;;
11113;SDS011;5610;52.154;9.198;2023-07-29T07:03:29;3.77;;;2.03;;
11113;SDS011;5610;52.154;9.198;2023-07-29T07:06:15;2.00;;;1.80;;
11113;SDS011;5610;52.154;9.198;2023-07-29T07:09:00;1.90;;;1.80;;
11113;SDS011;5610;52.154;9.198;2023-07-29T07:11:47;2.40;;;2.20;;
11113;SDS011;5610;52.154;9.198;2023-07-29T07:14:33;2.27;;;1.90;;
11113;SDS011;5610;52.154;9.198;2023-07-29T07:17:18;3.50;;;2.30;;
11113;SDS011;5610;52.154;9.198;2023-07-29T07:20:04;5.40;;;1.97;;
11113;SDS011;5610;52.154;9.198;2023-07-29T07:22:51;2.30;;;1.80;;
11113;SDS011;5610;52.154;9.198;2023-07-29T07:25:36;2.70;;;2.00;;
11113;SDS011;5610;52.154;9.198;2023-07-29T07:28:23;2.70;;;2.30;;
11113;SDS011;5610;52.154;9.198;2023-07-29T07:31:08;2.33;;;2.13;;
11113;SDS011;5610;52.154;9.198;2023-07-29T07:33:53;2.40;;;1.97;;
11113;SDS011;5610;52.154;9.198;2023-07-29T07:36:38;2.83;;;2.63;;
11113;SDS011;5610;52.154;9.198;2023-07-29T07:39:23;3.53;;;3.00;;
11113;SDS011;5610;52.154;9.198;2023-07-29T07:42:09;3.83;;;3.00;;
11113;SDS011;5610;52.154;9.198;2023-07-29T07:44:55;3.27;;;3.07;;
11113;SDS011;5610;52.154;9.198;2023-07-29T07:47:40;4.03;;;3.40;;
11113;SDS011;5610;52.154;9.198;2023-07-29T07:50:28;3.80;;;3.50;;
11113;SDS011;5610;52.154;9.198;2023-07-29T07:53:13;3.97;;;3.60;;
11113;SDS011;5610;52.154;9.198;2023-07-29T07:55:59;4.90;;;4.50;;
11113;SDS011;5610;52.154;9.198;2023-07-29T07:58:44;5.77;;;4.67;;
11113;SDS011;5610;52.154;9.198;2023-07-29T08:01:34;5.20;;;4.80;;
11113;SDS011;5610;52.154;9.198;2023-07-29T08:04:20;5.80;;;5.40;;
11113;SDS011;5610;52.154;9.198;2023-07-29T08:07:05;6.00;;;5.50;;
11113;SDS011;5610;52.154;9.198;2023-07-29T08:09:51;5.20;;;4.80;;
11113;SDS011;5610;52.154;9.198;2023-07-29T08:12:36;5.97;;;5.47;;
11113;SDS011;5610;52.154;9.198;2023-07-29T08:15:21;5.47;;;4.97;;
11113;SDS011;5610;52.154;9.198;2023-07-29T08:18:07;5.20;;;4.70;;
11113;SDS011;5610;52.154;9.198;2023-07-29T08:20:53;5.00;;;4.60;;
11113;SDS011;5610;52.154;9.198;2023-07-29T08:23:41;4.70;;;4.30;;
11113;SDS011;5610;52.154;9.198;2023-07-29T08:26:26;4.97;;;4.47;;
11113;SDS011;5610;52.154;9.198;2023-07-29T08:29:12;4.93;;;4.63;;
11113;SDS011;5610;52.154;9.198;2023-07-29T08:31:57;6.67;;;6.17;;
11113;SDS011;5610;52.154;9.198;2023-07-29T08:34:43;7.70;;;7.10;;
11113;SDS011;5610;52.154;9.198;2023-07-29T08:37:29;7.70;;;7.00;;
11113;SDS011;5610;52.154;9.198;2023-07-29T08:40:15;9.30;;;8.37;;
11113;SDS011;5610;52.154;9.198;2023-07-29T08:43:00;11.20;;;10.40;;
11113;SDS011;5610;52.154;9.198;2023-07-29T08:45:49;11.17;;;10.07;;
11113;SDS011;5610;52.154;9.198;2023-07-29T08:48:38;10.40;;;9.50;;
11113;SDS011;5610;52.154;9.198;2023-07-29T08:51:27;9.97;;;9.17;;
11113;SDS011;5610;52.154;9.198;2023-07-29T08:54:14;10.57;;;9.77;;
11113;SDS011;5610;52.154;9.198;2023-07-29T08:56:59;10.93;;;10.13;;
11113;SDS011;5610;52.154;9.198;2023-07-29T08:59:45;9.67;;;8.97;;
11113;SDS011;5610;52.154;9.198;2023-07-29T09:02:30;9.37;;;8.60;;
11113;SDS011;5610;52.154;9.198;2023-07-29T09:05:15;9.10;;;8.40;;
11113;SDS011;5610;52.154;9.198;2023-07-29T09:08:03;7.37;;;6.87;;
11113;SDS011;5610;52.154;9.198;2023-07-29T09:10:49;7.00;;;6.50;;
11113;SDS011;5610;52.154;9.198;2023-07-29T09:13:34;6.13;;;5.70;;
11113;SDS011;5610;52.154;9.198;2023-07-29T09:16:20;6.40;;;5.90;;
11113;SDS011;5610;52.154;9.198;2023-07-29T09:19:06;5.23;;;4.83;;
11113;SDS011;5610;52.154;9.198;2023-07-29T09:21:51;5.53;;;5.23;;
11113;SDS011;5610;52.154;9.198;2023-07-29T09:24:38;5.00;;;4.60;;
11113;SDS011;5610;52.154;9.198;2023-07-29T09:27:24;4.60;;;4.30;;
11113;SDS011;5610;52.154;9.198;2023-07-29T09:30:12;4.50;;;4.10;;
11113;SDS011;5610;52.154;9.198;2023-07-29T09:33:00;4.40;;;4.10;;
11113;SDS011;5610;52.154;9.198;2023-07-29T09:35:45;4.30;;;4.00;;
11113;SDS011;5610;52.154;9.198;2023-07-29T09:38:31;5.87;;;4.60;;
11113;SDS011;5610;52.154;9.198;2023-07-29T09:41:18;4.60;;;4.20;;
11113;SDS011;5610;52.154;9.198;2023-07-29T09:44:04;3.90;;;3.60;;
11113;SDS011;5610;52.154;9.198;2023-07-29T09:46:49;3.63;;;3.30;;
11113;SDS011;5610;52.154;9.198;2023-07-29T09:49:34;3.50;;;3.30;;
11113;SDS011;5610;52.154;9.198;2023-07-29T09:52:22;4.97;;;4.00;;
11113;SDS011;5610;52.154;9.198;2023-07-29T09:55:08;4.07;;;3.77;;
11113;SDS011;5610;52.154;9.198;2023-07-29T09:57:57;4.17;;;3.87;;
11113;SDS011;5610;52.154;9.198;2023-07-29T10:00:44;3.80;;;3.50;;
11113;SDS011;5610;52.154;9.198;2023-07-29T10:03:31;4.17;;;3.77;;
11113;SDS011;5610;52.154;9.198;2023-07-29T10:06:17;4.70;;;4.03;;
11113;SDS011;5610;52.154;9.198;2023-07-29T10:09:03;3.53;;;3.23;;
11113;SDS011;5610;52.154;9.198;2023-07-29T10:11:50;3.67;;;3.37;;
11113;SDS011;5610;52.154;9.198;2023-07-29T10:14:38;3.20;;;3.00;;
11113;SDS011;5610;52.154;9.198;2023-07-29T10:17:24;2.83;;;2.37;;
11113;SDS011;5610;52.154;9.198;2023-07-29T10:20:11;2.40;;;2.00;;
11113;SDS011;5610;52.154;9.198;2023-07-29T10:22:56;4.70;;;1.90;;
11113;SDS011;5610;52.154;9.198;2023-07-29T10:25:46;1.67;;;1.57;;
11113;SDS011;5610;52.154;9.198;2023-07-29T10:28:35;1.80;;;1.70;;
11113;SDS011;5610;52.154;9.198;2023-07-29T10:31:26;2.37;;;1.70;;
11113;SDS011;5610;52.154;9.198;2023-07-29T10:34:14;1.87;;;1.40;;
11113;SDS011;5610;52.154;9.198;2023-07-29T10:36:59;2.10;;;1.50;;
11113;SDS011;5610;52.154;9.198;2023-07-29T10:39:51;2.13;;;1.20;;
11113;SDS011;5610;52.154;9.198;2023-07-29T10:42:37;2.57;;;1.50;;
11113;SDS011;5610;52.154;9.198;2023-07-29T10:45:23;1.17;;;1.07;;
11113;SDS011;5610;52.154;9.198;2023-07-29T10:48:11;1.20;;;1.10;;
11113;SDS011;5610;52.154;9.198;2023-07-29T10:54:09;1.93;;;1.30;;
11113;SDS011;5610;52.154;9.198;2023-07-29T10:56:56;2.00;;;1.13;;
11113;SDS011;5610;52.154;9.198;2023-07-29T10:59:52;2.03;;;1.23;;
11113;SDS011;5610;52.154;9.198;2023-07-29T11:02:39;1.30;;;1.20;;
11113;SDS011;5610;52.154;9.198;2023-07-29T11:05:26;3.30;;;1.10;;
11113;SDS011;5610;52.154;9.198;2023-07-29T11:08:15;1.57;;;0.97;;
11113;SDS011;5610;52.154;9.198;2023-07-29T11:11:03;1.37;;;1.00;;
11113;SDS011;5610;52.154;9.198;2023-07-29T11:13:49;4.37;;;1.20;;
11113;SDS011;5610;52.154;9.198;2023-07-29T11:16:35;1.20;;;0.90;;
11113;SDS011;5610;52.154;9.198;2023-07-29T11:19:21;1.23;;;1.13;;
11113;SDS011;5610;52.154;9.198;2023-07-29T11:22:08;1.00;;;0.90;;
11113;SDS011;5610;52.154;9.198;2023-07-29T11:24:54;1.20;;;1.00;;
11113;SDS011;5610;52.154;9.198;2023-07-29T11:27:40;2.43;;;1.10;;
11113;SDS011;5610;52.154;9.198;2023-07-29T11:30:26;1.00;;;0.70;;
11113;SDS011;5610;52.154;9.198;2023-07-29T11:33:12;1.00;;;0.90;;
11113;SDS011;5610;52.154;9.198;2023-07-29T11:35:58;2.43;;;1.07;;
11113;SDS011;5610;52.154;9.198;2023-07-29T11:38:44;1.10;;;0.70;;
11113;SDS011;5610;52.154;9.198;2023-07-29T11:41:30;2.30;;;1.27;;
11113;SDS011;5610;52.154;9.198;2023-07-29T11:44:18;1.57;;;0.80;;
11113;SDS011;5610;52.154;9.198;2023-07-29T11:47:05;1.13;;;0.90;;
11113;SDS011;5610;52.154;9.198;2023-07-29T11:49:51;1.50;;;1.07;;
11113;SDS011;5610;52.154;9.198;2023-07-29T11:52:37;1.87;;;0.90;;
11113;SDS011;5610;52.154;9.198;2023-07-29T11:55:26;1.47;;;1.07;;
11113;SDS011;5610;52.154;9.198;2023-07-29T11:58:11;0.80;;;0.80;;
11113;SDS011;5610;52.154;9.198;2023-07-29T12:00:57;1.07;;;0.70;;
11113;SDS011;5610;52.154;9.198;2023-07-29T12:03:42;1.07;;;0.90;;
11113;SDS011;5610;52.154;9.198;2023-07-29T12:06:28;0.90;;;0.67;;
11113;SDS011;5610;52.154;9.198;2023-07-29T12:09:15;1.60;;;0.80;;
11113;SDS011;5610;52.154;9.198;2023-07-29T12:12:01;1.10;;;0.70;;
11113;SDS011;5610;52.154;9.198;2023-07-29T12:14:47;1.83;;;0.80;;
11113;SDS011;5610;52.154;9.198;2023-07-29T12:17:37;3.87;;;0.83;;
11113;SDS011;5610;52.154;9.198;2023-07-29T12:20:24;1.53;;;1.10;;
11113;SDS011;5610;52.154;9.198;2023-07-29T12:23:10;1.27;;;0.80;;
11113;SDS011;5610;52.154;9.198;2023-07-29T12:25:56;1.23;;;0.83;;
11113;SDS011;5610;52.154;9.198;2023-07-29T12:28:46;0.70;;;0.57;;
11113;SDS011;5610;52.154;9.198;2023-07-29T12:31:32;1.20;;;0.80;;
11113;SDS011;5610;52.154;9.198;2023-07-29T12:34:18;1.60;;;0.80;;
11113;SDS011;5610;52.154;9.198;2023-07-29T12:37:04;1.30;;;0.77;;
11113;SDS011;5610;52.154;9.198;2023-07-29T12:39:50;0.90;;;0.77;;
11113;SDS011;5610;52.154;9.198;2023-07-29T12:42:35;1.20;;;0.93;;
11113;SDS011;5610;52.154;9.198;2023-07-29T12:45:22;1.03;;;0.93;;
11113;SDS011;5610;52.154;9.198;2023-07-29T12:48:10;0.80;;;0.80;;
11113;SDS011;5610;52.154;9.198;2023-07-29T12:50:55;1.07;;;0.97;;
11113;SDS011;5610;52.154;9.198;2023-07-29T12:53:41;1.67;;;0.87;;
11113;SDS011;5610;52.154;9.198;2023-07-29T12:56:27;0.90;;;0.70;;
11113;SDS011;5610;52.154;9.198;2023-07-29T12:59:12;1.30;;;0.90;;
11113;SDS011;5610;52.154;9.198;2023-07-29T13:01:58;0.90;;;0.80;;
11113;SDS011;5610;52.154;9.198;2023-07-29T13:04:44;1.07;;;0.80;;
11113;SDS011;5610;52.154;9.198;2023-07-29T13:07:29;0.80;;;0.70;;
11113;SDS011;5610;52.154;9.198;2023-07-29T13:10:14;0.93;;;0.80;;
11113;SDS011;5610;52.154;9.198;2023-07-29T13:12:59;0.90;;;0.77;;
11113;SDS011;5610;52.154;9.198;2023-07-29T13:15:44;1.73;;;0.83;;
11113;SDS011;5610;52.154;9.198;2023-07-29T13:18:31;1.30;;;1.10;;
11113;SDS011;5610;52.154;9.198;2023-07-29T13:21:16;1.20;;;1.03;;
11113;SDS011;5610;52.154;9.198;2023-07-29T13:24:01;1.57;;;1.13;;
11113;SDS011;5610;52.154;9.198;2023-07-29T13:26:46;1.10;;;1.00;;
11113;SDS011;5610;52.154;9.198;2023-07-29T13:29:32;1.40;;;1.20;;
11113;SDS011;5610;52.154;9.198;2023-07-29T13:32:18;1.07;;;0.80;;
11113;SDS011;5610;52.154;9.198;2023-07-29T13:35:05;1.13;;;1.00;;
11113;SDS011;5610;52.154;9.198;2023-07-29T13:37:51;1.20;;;0.90;;
11113;SDS011;5610;52.154;9.198;2023-07-29T13:40:36;1.63;;;1.10;;
11113;SDS011;5610;52.154;9.198;2023-07-29T13:43:21;1.33;;;1.20;;
11113;SDS011;5610;52.154;9.198;2023-07-29T13:46:06;1.07;;;0.97;;
11113;SDS011;5610;52.154;9.198;2023-07-29T13:48:52;2.40;;;1.20;;
11113;SDS011;5610;52.154;9.198;2023-07-29T13:51:38;1.40;;;1.20;;
11113;SDS011;5610;52.154;9.198;2023-07-29T13:54:23;8.67;;;1.40;;
11113;SDS011;5610;52.154;9.198;2023-07-29T13:57:08;1.23;;;1.07;;
11113;SDS011;5610;52.154;9.198;2023-07-29T13:59:54;3.63;;;1.43;;
11113;SDS011;5610;52.154;9.198;2023-07-29T14:02:39;1.60;;;1.50;;
11113;SDS011;5610;52.154;9.198;2023-07-29T14:05:24;3.37;;;1.60;;
11113;SDS011;5610;52.154;9.198;2023-07-29T14:08:11;2.00;;;1.30;;
11113;SDS011;5610;52.154;9.198;2023-07-29T14:10:56;1.73;;;1.33;;
11113;SDS011;5610;52.154;9.198;2023-07-29T14:13:41;2.00;;;1.37;;
11113;SDS011;5610;52.154;9.198;2023-07-29T14:16:27;1.43;;;1.10;;
11113;SDS011;5610;52.154;9.198;2023-07-29T14:19:12;1.67;;;1.57;;
11113;SDS011;5610;52.154;9.198;2023-07-29T14:21:57;4.30;;;1.37;;
11113;SDS011;5610;52.154;9.198;2023-07-29T14:24:44;1.37;;;1.20;;
11113;SDS011;5610;52.154;9.198;2023-07-29T14:27:29;1.53;;;1.27;;
11113;SDS011;5610;52.154;9.198;2023-07-29T14:30:14;2.03;;;1.30;;
11113;SDS011;5610;52.154;9.198;2023-07-29T14:33:00;1.97;;;1.20;;
11113;SDS011;5610;52.154;9.198;2023-07-29T14:35:45;1.13;;;1.03;;
11113;SDS011;5610;52.154;9.198;2023-07-29T14:38:30;2.37;;;1.07;;
11113;SDS011;5610;52.154;9.198;2023-07-29T14:41:16;1.30;;;1.20;;
11113;SDS011;5610;52.154;9.198;2023-07-29T14:44:02;1.67;;;1.20;;
11113;SDS011;5610;52.154;9.198;2023-07-29T14:46:47;1.50;;;1.20;;
11113;SDS011;5610;52.154;9.198;2023-07-29T14:49:33;1.53;;;1.30;;
11113;SDS011;5610;52.154;9.198;2023-07-29T14:52:18;0.97;;;0.93;;
11113;SDS011;5610;52.154;9.198;2023-07-29T14:55:03;4.50;;;1.47;;
11113;SDS011;5610;52.154;9.198;2023-07-29T14:57:50;2.03;;;1.30;;
11113;SDS011;5610;52.154;9.198;2023-07-29T15:00:35;2.47;;;1.20;;
11113;SDS011;5610;52.154;9.198;2023-07-29T15:03:21;1.27;;;1.10;;
11113;SDS011;5610;52.154;9.198;2023-07-29T15:06:06;1.30;;;1.20;;
11113;SDS011;5610;52.154;9.198;2023-07-29T15:08:51;1.60;;;1.50;;
11113;SDS011;5610;52.154;9.198;2023-07-29T15:11:36;1.40;;;1.30;;
11113;SDS011;5610;52.154;9.198;2023-07-29T15:14:22;1.40;;;1.30;;
11113;SDS011;5610;52.154;9.198;2023-07-29T15:17:08;1.63;;;1.43;;
11113;SDS011;5610;52.154;9.198;2023-07-29T15:19:53;2.40;;;1.37;;
11113;SDS011;5610;52.154;9.198;2023-07-29T15:22:38;1.67;;;1.20;;
11113;SDS011;5610;52.154;9.198;2023-07-29T15:25:23;2.83;;;1.40;;
11113;SDS011;5610;52.154;9.198;2023-07-29T15:28:09;1.73;;;1.30;;
11113;SDS011;5610;52.154;9.198;2023-07-29T15:30:55;1.73;;;1.30;;
11113;SDS011;5610;52.154;9.198;2023-07-29T15:33:40;1.30;;;1.20;;
11113;SDS011;5610;52.154;9.198;2023-07-29T15:36:25;2.03;;;1.43;;
11113;SDS011;5610;52.154;9.198;2023-07-29T15:39:11;1.80;;;1.70;;
11113;SDS011;5610;52.154;9.198;2023-07-29T15:41:56;4.40;;;2.40;;
11113;SDS011;5610;52.154;9.198;2023-07-29T15:44:41;2.50;;;2.30;;
11113;SDS011;5610;52.154;9.198;2023-07-29T15:47:27;2.63;;;2.43;;
11113;SDS011;5610;52.154;9.198;2023-07-29T15:50:14;2.87;;;2.57;;
11113;SDS011;5610;52.154;9.198;2023-07-29T15:52:59;7.70;;;3.30;;
11113;SDS011;5610;52.154;9.198;2023-07-29T15:55:47;4.00;;;3.70;;
11113;SDS011;5610;52.154;9.198;2023-07-29T15:58:32;7.13;;;4.70;;
11113;SDS011;5610;52.154;9.198;2023-07-29T16:01:17;4.37;;;3.70;;
11113;SDS011;5610;52.154;9.198;2023-07-29T16:04:03;5.23;;;4.53;;
11113;SDS011;5610;52.154;9.198;2023-07-29T16:06:48;5.10;;;4.60;;
11113;SDS011;5610;52.154;9.198;2023-07-29T16:09:33;12.07;;;6.10;;
11113;SDS011;5610;52.154;9.198;2023-07-29T16:12:19;5.63;;;5.07;;
11113;SDS011;5610;52.154;9.198;2023-07-29T16:15:05;4.87;;;4.47;;
11113;SDS011;5610;52.154;9.198;2023-07-29T16:17:51;4.23;;;3.83;;
11113;SDS011;5610;52.154;9.198;2023-07-29T16:20:38;4.10;;;3.80;;
11113;SDS011;5610;52.154;9.198;2023-07-29T16:23:23;4.03;;;3.47;;
11113;SDS011;5610;52.154;9.198;2023-07-29T16:26:08;4.40;;;4.00;;
11113;SDS011;5610;52.154;9.198;2023-07-29T16:28:53;3.50;;;3.20;;
11113;SDS011;5610;52.154;9.198;2023-07-29T16:31:38;5.33;;;3.50;;
11113;SDS011;5610;52.154;9.198;2023-07-29T16:34:23;6.90;;;3.20;;
11113;SDS011;5610;52.154;9.198;2023-07-29T16:37:10;3.20;;;2.90;;
11113;SDS011;5610;52.154;9.198;2023-07-29T16:39:55;3.63;;;3.30;;
11113;SDS011;5610;52.154;9.198;2023-07-29T16:42:40;3.10;;;2.73;;
11113;SDS011;5610;52.154;9.198;2023-07-29T16:45:25;3.00;;;2.77;;
11113;SDS011;5610;52.154;9.198;2023-07-29T16:48:11;4.33;;;2.97;;
11113;SDS011;5610;52.154;9.198;2023-07-29T16:50:56;4.93;;;2.83;;
11113;SDS011;5610;52.154;9.198;2023-07-29T16:53:42;3.10;;;2.80;;
11113;SDS011;5610;52.154;9.198;2023-07-29T16:56:27;2.43;;;2.33;;
11113;SDS011;5610;52.154;9.198;2023-07-29T16:59:13;2.63;;;2.43;;